TimeMDT,TemperatureF,Dew PointF,Humidity,Sea Level PressureIn,VisibilityMPH,Wind Direction,Wind SpeedMPH,Gust SpeedMPH,PrecipitationIn,Events,Conditions,WindDirDegrees,DateUTC
12:15 AM,32.0,30.2,93,30.17,-9999.0,NW,21.9,27.6,N/A,,Unknown,320,2013-10-15 06:15:00
12:35 AM,32.0,30.2,93,30.17,-9999.0,NW,24.2,31.1,N/A,,Unknown,320,2013-10-15 06:35:00
12:55 AM,32.0,30.2,93,30.17,-9999.0,NW,23.0,29.9,N/A,,Overcast,320,2013-10-15 06:55:00
1:15 AM,32.0,30.2,93,30.18,-9999.0,NW,20.7,27.6,N/A,,Unknown,320,2013-10-15 07:15:00
1:35 AM,32.0,30.2,93,30.19,-9999.0,NW,19.6,29.9,N/A,,Unknown,320,2013-10-15 07:35:00
1:55 AM,32.0,28.4,87,30.19,-9999.0,NW,20.7,27.6,N/A,,Unknown,320,2013-10-15 07:55:00
2:15 AM,32.0,28.4,87,30.21,-9999.0,NW,21.9,27.6,N/A,,Unknown,320,2013-10-15 08:15:00
2:35 AM,32.0,28.4,87,30.21,-9999.0,NW,24.2,29.9,N/A,,Unknown,320,2013-10-15 08:35:00
2:55 AM,32.0,30.2,93,30.20,-9999.0,NW,20.7,29.9,N/A,,Overcast,320,2013-10-15 08:55:00
3:15 AM,32.0,30.2,93,30.21,-9999.0,NW,24.2,28.8,N/A,,Unknown,320,2013-10-15 09:15:00
3:35 AM,32.0,30.2,93,30.21,-9999.0,NW,23.0,31.1,N/A,,Overcast,320,2013-10-15 09:35:00
3:55 AM,32.0,30.2,93,30.22,-9999.0,NW,21.9,33.4,N/A,,Overcast,320,2013-10-15 09:55:00
4:15 AM,32.0,30.2,93,30.23,-9999.0,NW,21.9,32.2,N/A,,Overcast,320,2013-10-15 10:15:00
4:35 AM,32.0,30.2,93,30.24,-9999.0,NW,21.9,29.9,N/A,,Overcast,310,2013-10-15 10:35:00
4:55 AM,32.0,30.2,93,30.24,-9999.0,NW,25.3,31.1,N/A,,Overcast,310,2013-10-15 10:55:00
5:15 AM,32.0,30.2,93,30.24,-9999.0,NW,20.7,28.8,N/A,,Overcast,320,2013-10-15 11:15:00
5:35 AM,32.0,30.2,93,30.24,-9999.0,NW,21.9,27.6,N/A,,Overcast,320,2013-10-15 11:35:00
5:55 AM,32.0,30.2,93,30.24,-9999.0,NW,20.7,27.6,N/A,,Overcast,320,2013-10-15 11:55:00
6:15 AM,32.0,30.2,93,30.25,-9999.0,NW,21.9,28.8,N/A,,Overcast,320,2013-10-15 12:15:00
6:35 AM,32.0,30.2,93,30.25,-9999.0,NW,20.7,26.5,N/A,,Overcast,320,2013-10-15 12:35:00
6:55 AM,32.0,30.2,93,30.25,-9999.0,NW,18.4,26.5,N/A,,Overcast,320,2013-10-15 12:55:00
7:15 AM,32.0,30.2,93,30.25,-9999.0,NW,17.3,24.2,N/A,,Overcast,310,2013-10-15 13:15:00
7:35 AM,32.0,28.4,87,30.26,-9999.0,NW,19.6,25.3,N/A,,Overcast,320,2013-10-15 13:35:00
7:55 AM,32.0,30.2,93,30.26,-9999.0,NW,20.7,27.6,N/A,,Overcast,310,2013-10-15 13:55:00
8:15 AM,32.0,30.2,93,30.26,-9999.0,NW,19.6,25.3,N/A,,Unknown,320,2013-10-15 14:15:00
8:35 AM,32.0,30.2,93,30.27,-9999.0,NW,17.3,23.0,N/A,,Unknown,310,2013-10-15 14:35:00
8:55 AM,32.0,30.2,93,30.28,-9999.0,NW,16.1,23.0,N/A,,Unknown,310,2013-10-15 14:55:00
9:15 AM,32.0,30.2,93,30.28,-9999.0,NW,19.6,24.2,N/A,,Unknown,320,2013-10-15 15:15:00
9:35 AM,32.0,30.2,93,30.28,-9999.0,NW,21.9,25.3,N/A,,Unknown,320,2013-10-15 15:35:00
9:55 AM,32.0,30.2,93,30.28,-9999.0,NW,18.4,24.2,N/A,,Unknown,320,2013-10-15 15:55:00
10:15 AM,32.0,30.2,93,30.28,-9999.0,NW,20.7,25.3,N/A,,Unknown,310,2013-10-15 16:15:00
10:35 AM,32.0,30.2,93,30.28,-9999.0,NW,18.4,24.2,N/A,,Unknown,320,2013-10-15 16:35:00
10:55 AM,33.8,30.2,87,30.28,-9999.0,NW,18.4,24.2,N/A,,Clear,320,2013-10-15 16:55:00
11:15 AM,33.8,28.4,81,30.27,-9999.0,NW,16.1,23.0,N/A,,Clear,320,2013-10-15 17:15:00
11:35 AM,35.6,30.2,81,30.27,-9999.0,NW,15.0,23.0,N/A,,Clear,310,2013-10-15 17:35:00
11:55 AM,35.6,28.4,75,30.28,-9999.0,NW,15.0,19.6,N/A,,Clear,320,2013-10-15 17:55:00
12:15 PM,35.6,28.4,75,30.27,-9999.0,NW,16.1,23.0,N/A,,Clear,320,2013-10-15 18:15:00
12:35 PM,35.6,26.6,70,30.27,-9999.0,NW,17.3,23.0,N/A,,Clear,320,2013-10-15 18:35:00
12:55 PM,35.6,26.6,70,30.27,-9999.0,NNW,15.0,-,N/A,,Scattered Clouds,330,2013-10-15 18:55:00
1:15 PM,35.6,28.4,75,30.25,-9999.0,NW,13.8,-,N/A,,Mostly Cloudy,320,2013-10-15 19:15:00
1:35 PM,35.6,26.6,70,30.25,-9999.0,NNW,16.1,-,N/A,,Mostly Cloudy,330,2013-10-15 19:35:00
1:55 PM,37.4,26.6,65,30.24,-9999.0,NW,17.3,23.0,N/A,,Scattered Clouds,320,2013-10-15 19:55:00
2:15 PM,37.4,28.4,70,30.24,-9999.0,NW,17.3,-,N/A,,Scattered Clouds,310,2013-10-15 20:15:00
2:35 PM,37.4,28.4,70,30.24,-9999.0,NW,17.3,21.9,N/A,,Mostly Cloudy,320,2013-10-15 20:35:00
2:55 PM,37.4,26.6,65,30.23,-9999.0,NNW,17.3,23.0,N/A,,Mostly Cloudy,330,2013-10-15 20:55:00
3:15 PM,37.4,26.6,65,30.22,-9999.0,NW,21.9,28.8,N/A,,Mostly Cloudy,320,2013-10-15 21:15:00
3:35 PM,37.4,26.6,65,30.22,-9999.0,NNW,17.3,23.0,N/A,,Scattered Clouds,330,2013-10-15 21:35:00
3:55 PM,37.4,28.4,70,30.21,-9999.0,NNW,15.0,20.7,N/A,,Scattered Clouds,330,2013-10-15 21:55:00
4:15 PM,37.4,26.6,65,30.21,-9999.0,NNW,16.1,19.6,N/A,,Scattered Clouds,330,2013-10-15 22:15:00
4:35 PM,39.2,26.6,61,30.21,-9999.0,North,11.5,16.1,N/A,,Mostly Cloudy,350,2013-10-15 22:35:00
4:55 PM,37.4,26.6,65,30.20,-9999.0,NNW,13.8,18.4,N/A,,Scattered Clouds,340,2013-10-15 22:55:00
5:15 PM,39.2,26.6,61,30.21,-9999.0,NNW,11.5,17.3,N/A,,Clear,340,2013-10-15 23:15:00
5:35 PM,37.4,26.6,65,30.21,-9999.0,North,9.2,-,N/A,,Clear,350,2013-10-15 23:35:00
5:55 PM,37.4,26.6,65,30.20,-9999.0,North,5.8,-,N/A,,Clear,360,2013-10-15 23:55:00
6:15 PM,35.6,28.4,75,30.20,-9999.0,North,4.6,-,N/A,,Clear,350,2013-10-16 00:15:00
6:35 PM,35.6,28.4,75,30.20,-9999.0,North,4.6,-,N/A,,Clear,360,2013-10-16 00:35:00
6:55 PM,33.8,28.4,81,30.21,-9999.0,North,4.6,-,N/A,,Clear,360,2013-10-16 00:55:00
7:15 PM,33.8,28.4,81,30.21,-9999.0,North,6.9,-,N/A,,Clear,360,2013-10-16 01:15:00
7:35 PM,32.0,28.4,87,30.20,-9999.0,NNE,4.6,-,N/A,,Clear,20,2013-10-16 01:35:00
7:55 PM,32.0,28.4,87,30.21,-9999.0,Calm,Calm,-,N/A,,Clear,0,2013-10-16 01:55:00
8:15 PM,32.0,28.4,87,30.20,-9999.0,North,6.9,-,N/A,,Clear,10,2013-10-16 02:15:00
8:35 PM,32.0,28.4,87,30.20,-9999.0,Calm,Calm,-,N/A,,Unknown,0,2013-10-16 02:35:00
8:55 PM,32.0,28.4,87,30.20,-9999.0,NNE,4.6,-,N/A,,Unknown,20,2013-10-16 02:55:00
9:15 PM,32.0,28.4,87,30.20,-9999.0,NNE,4.6,-,N/A,,Clear,20,2013-10-16 03:15:00
9:35 PM,32.0,28.4,87,30.19,-9999.0,North,6.9,-,N/A,,Unknown,10,2013-10-16 03:35:00
9:55 PM,30.2,28.4,93,30.19,-9999.0,Calm,Calm,-,N/A,,Unknown,0,2013-10-16 03:55:00
10:15 PM,30.2,28.4,93,30.19,-9999.0,Calm,Calm,-,N/A,,Unknown,0,2013-10-16 04:15:00
10:35 PM,30.2,26.6,86,30.18,-9999.0,Calm,Calm,-,N/A,,Unknown,0,2013-10-16 04:35:00
10:55 PM,30.2,26.6,86,30.18,-9999.0,Calm,Calm,-,N/A,,Unknown,0,2013-10-16 04:55:00
11:15 PM,28.4,26.6,93,30.17,-9999.0,Calm,Calm,-,N/A,,Unknown,0,2013-10-16 05:15:00
11:35 PM,28.4,26.6,93,30.17,-9999.0,Calm,Calm,-,N/A,,Unknown,0,2013-10-16 05:35:00
11:55 PM,28.4,26.6,93,30.17,-9999.0,NNE,3.5,-,N/A,,Unknown,20,2013-10-16 05:55:00